createdAt,value
2023-09-08T00:00:05.044Z,17.20
2023-09-08T00:01:07.958Z,17.10
2023-09-08T00:02:10.469Z,17.10
2023-09-08T00:03:13.482Z,17.10
2023-09-08T00:04:15.758Z,17.10
2023-09-08T00:05:18.840Z,17.00
2023-09-08T00:06:20.728Z,17.00
2023-09-08T00:07:22.679Z,17.10
2023-09-08T00:08:26.881Z,17.10
2023-09-08T00:09:28.900Z,17.10
2023-09-08T00:10:31.787Z,17.10
2023-09-08T00:11:33.706Z,17.10
2023-09-08T00:12:36.522Z,17.10
2023-09-08T00:13:38.475Z,17.10
2023-09-08T00:14:41.340Z,17.10
2023-09-08T00:15:43.274Z,17.10
2023-09-08T00:16:46.216Z,17.10
2023-09-08T00:17:48.517Z,17.10
2023-09-08T00:18:52.055Z,17.10
2023-09-08T00:19:53.886Z,17.20
2023-09-08T00:20:56.695Z,17.10
2023-09-08T00:21:59.528Z,17.20
2023-09-08T00:23:02.442Z,17.10
2023-09-08T00:24:06.283Z,17.00
2023-09-08T00:25:09.476Z,17.10
2023-09-08T00:26:11.441Z,17.10
2023-09-08T00:27:14.351Z,17.10
2023-09-08T00:28:16.236Z,17.10
2023-09-08T00:29:18.196Z,17.10
2023-09-08T00:30:21.383Z,17.10
2023-09-08T00:31:23.345Z,17.10
2023-09-08T00:32:26.407Z,17.00
2023-09-08T00:33:28.790Z,17.00
2023-09-08T00:34:31.870Z,17.00
2023-09-08T00:35:33.831Z,17.00
2023-09-08T00:36:36.690Z,17.00
2023-09-08T00:37:38.573Z,17.00
2023-09-08T00:38:42.388Z,16.90
2023-09-08T00:39:45.787Z,16.90
2023-09-08T00:40:48.639Z,16.90
2023-09-08T00:41:50.707Z,17.00
2023-09-08T00:42:52.531Z,17.00
2023-09-08T00:43:55.369Z,16.90
2023-09-08T00:44:57.301Z,17.00
2023-09-08T00:46:02.276Z,17.00
2023-09-08T00:47:04.684Z,17.00
2023-09-08T00:48:07.933Z,16.90
2023-09-08T00:49:10.095Z,16.90
2023-09-08T00:50:14.034Z,16.90
2023-09-08T00:51:16.177Z,16.90
2023-09-08T00:52:19.419Z,16.90
2023-09-08T00:53:22.397Z,16.90
2023-09-08T00:54:25.485Z,17.00
2023-09-08T00:55:28.959Z,17.00
2023-09-08T00:56:32.457Z,17.00
2023-09-08T00:57:34.401Z,17.00
2023-09-08T00:58:37.682Z,17.00
2023-09-08T00:59:40.434Z,16.90
2023-09-08T01:00:43.366Z,16.90
2023-09-08T01:01:45.329Z,16.90
2023-09-08T01:02:48.220Z,16.90
2023-09-08T01:03:50.156Z,17.00
2023-09-08T01:04:53.092Z,17.00
2023-09-08T01:05:56.577Z,17.00
2023-09-08T01:06:59.646Z,16.90
2023-09-08T01:08:03.507Z,17.00
2023-09-08T01:09:06.343Z,16.90
2023-09-08T01:10:10.256Z,16.90
2023-09-08T01:11:13.699Z,16.90
2023-09-08T01:12:17.711Z,16.80
2023-09-08T01:13:19.557Z,16.80
2023-09-08T01:14:22.511Z,16.80
2023-09-08T01:15:24.605Z,16.80
2023-09-08T01:16:27.446Z,16.80
2023-09-08T01:17:29.398Z,16.80
2023-09-08T01:18:32.465Z,16.80
2023-09-08T01:19:34.710Z,16.80
2023-09-08T01:20:58.051Z,16.80
2023-09-08T01:22:22.941Z,16.80
2023-09-08T01:23:34.341Z,16.80
2023-09-08T01:25:07.444Z,16.80
2023-09-08T01:26:18.591Z,16.80
2023-09-08T01:27:21.644Z,16.80
2023-09-08T01:28:25.592Z,16.80
2023-09-08T01:29:28.933Z,16.80
2023-09-08T01:30:34.149Z,16.90
2023-09-08T01:31:36.361Z,16.90
2023-09-08T01:32:39.396Z,16.90
2023-09-08T01:33:42.392Z,16.80
2023-09-08T01:34:45.267Z,16.70
2023-09-08T01:35:47.988Z,16.70
2023-09-08T01:36:51.333Z,16.70
2023-09-08T01:37:53.170Z,16.70
2023-09-08T01:38:56.065Z,16.70
2023-09-08T01:39:57.999Z,16.70
2023-09-08T01:41:02.766Z,16.60
2023-09-08T01:42:06.418Z,16.60
2023-09-08T01:43:09.238Z,16.60
2023-09-08T01:44:12.801Z,16.70
2023-09-08T01:45:15.657Z,16.60
2023-09-08T01:46:17.556Z,16.70
2023-09-08T01:47:20.744Z,16.70
2023-09-08T01:48:22.623Z,16.70
2023-09-08T01:49:25.470Z,16.80
2023-09-08T01:50:27.395Z,16.80
2023-09-08T01:51:30.247Z,16.80
2023-09-08T01:52:32.122Z,16.80
2023-09-08T01:53:35.183Z,16.70
2023-09-08T01:54:37.099Z,16.80
2023-09-08T01:55:39.965Z,16.70
2023-09-08T01:56:41.856Z,16.70
2023-09-08T01:57:47.583Z,16.70
2023-09-08T01:58:49.455Z,16.70
2023-09-08T01:59:52.369Z,16.70
2023-09-08T02:00:54.895Z,16.70
2023-09-08T02:01:57.831Z,16.70
2023-09-08T02:02:59.740Z,16.70
2023-09-08T02:04:02.858Z,16.60
2023-09-08T02:05:05.575Z,16.60
2023-09-08T02:06:07.495Z,16.60
2023-09-08T02:07:10.295Z,16.60
2023-09-08T02:08:12.248Z,16.70
2023-09-08T02:09:16.628Z,16.70
2023-09-08T02:10:18.934Z,16.60
2023-09-08T02:11:21.791Z,16.70
2023-09-08T02:12:23.754Z,16.70
2023-09-08T02:13:28.540Z,16.70
2023-09-08T02:14:30.822Z,16.80
2023-09-08T02:15:35.575Z,16.70
2023-09-08T02:16:38.574Z,16.70
2023-09-08T02:17:40.540Z,16.60
2023-09-08T02:18:43.526Z,16.60
2023-09-08T02:19:45.357Z,16.60
2023-09-08T02:20:47.248Z,16.60
2023-09-08T02:21:50.356Z,16.60
2023-09-08T02:22:55.482Z,16.60
2023-09-08T02:23:58.408Z,16.60
2023-09-08T02:25:00.447Z,16.60
2023-09-08T02:26:03.292Z,16.60
2023-09-08T02:27:05.467Z,16.60
2023-09-08T02:28:08.342Z,16.60
2023-09-08T02:29:11.824Z,16.60
2023-09-08T02:30:14.730Z,16.60
2023-09-08T02:31:16.658Z,16.60
2023-09-08T02:32:18.506Z,16.60
2023-09-08T02:33:21.452Z,16.60
2023-09-08T02:34:23.471Z,16.60
2023-09-08T02:35:26.755Z,16.70
2023-09-08T02:36:28.782Z,16.60
2023-09-08T02:37:31.676Z,16.60
2023-09-08T02:38:33.948Z,16.60
2023-09-08T02:39:37.238Z,16.60
2023-09-08T02:40:39.242Z,16.60
2023-09-08T02:41:42.036Z,16.50
2023-09-08T02:42:43.896Z,16.60
2023-09-08T02:43:46.837Z,16.50
2023-09-08T02:44:50.115Z,16.50
2023-09-08T02:45:53.041Z,16.50
2023-09-08T02:46:55.065Z,16.50
2023-09-08T02:47:58.028Z,16.50
2023-09-08T02:49:00.006Z,16.50
2023-09-08T02:50:04.045Z,16.50
2023-09-08T02:51:06.091Z,16.50
2023-09-08T02:52:08.964Z,16.60
2023-09-08T02:53:11.267Z,16.60
2023-09-08T02:54:13.076Z,16.60
2023-09-08T02:55:16.140Z,16.60
2023-09-08T02:56:18.055Z,16.50
2023-09-08T02:57:21.042Z,16.50
2023-09-08T02:58:23.073Z,16.50
2023-09-08T02:59:24.957Z,16.50
2023-09-08T03:00:29.186Z,16.50
2023-09-08T03:01:31.369Z,16.50
2023-09-08T03:02:34.793Z,16.50
2023-09-08T03:03:36.726Z,16.40
2023-09-08T03:04:39.597Z,16.40
2023-09-08T03:05:41.456Z,16.40
2023-09-08T03:06:44.292Z,16.40
2023-09-08T03:07:49.069Z,16.40
2023-09-08T03:08:51.010Z,16.40
2023-09-08T03:09:53.974Z,16.40
2023-09-08T03:10:57.520Z,16.40
2023-09-08T03:12:00.436Z,16.40
2023-09-08T03:13:02.448Z,16.40
2023-09-08T03:14:05.861Z,16.40
2023-09-08T03:15:08.852Z,16.40
2023-09-08T03:16:12.302Z,16.30
2023-09-08T03:17:15.253Z,16.30
2023-09-08T03:18:17.168Z,16.30
2023-09-08T03:19:19.972Z,16.30
2023-09-08T03:20:22.129Z,16.30
2023-09-08T03:21:24.986Z,16.20
2023-09-08T03:22:26.863Z,16.30
2023-09-08T03:23:28.965Z,16.30
2023-09-08T03:24:31.859Z,16.30
2023-09-08T03:25:33.688Z,16.30
2023-09-08T03:26:36.539Z,16.30
2023-09-08T03:27:38.388Z,16.20
2023-09-08T03:28:41.448Z,16.30
2023-09-08T03:29:43.294Z,16.20
2023-09-08T03:30:45.162Z,16.20
2023-09-08T03:31:49.543Z,16.20
2023-09-08T03:32:51.645Z,16.20
2023-09-08T03:33:54.568Z,16.30
2023-09-08T03:34:56.592Z,16.30
2023-09-08T03:35:58.793Z,16.30
2023-09-08T03:37:01.683Z,16.30
2023-09-08T03:38:03.717Z,16.20
2023-09-08T03:39:05.617Z,16.20
2023-09-08T03:40:10.178Z,16.20
2023-09-08T03:41:12.222Z,16.20
2023-09-08T03:42:15.431Z,16.20
2023-09-08T03:43:17.448Z,16.20
2023-09-08T03:44:20.310Z,16.20
2023-09-08T03:45:22.124Z,16.20
2023-09-08T03:46:25.977Z,16.20
2023-09-08T03:47:29.341Z,16.20
2023-09-08T03:48:32.270Z,16.20
2023-09-08T03:49:34.238Z,16.20
2023-09-08T03:50:36.588Z,16.20
2023-09-08T03:51:39.425Z,16.20
2023-09-08T03:52:41.320Z,16.10
2023-09-08T03:53:44.264Z,16.10
2023-09-08T03:54:47.514Z,16.10
2023-09-08T03:55:50.454Z,16.20
2023-09-08T03:56:52.311Z,16.10
2023-09-08T03:57:55.112Z,16.20
2023-09-08T03:58:57.089Z,16.20
2023-09-08T03:59:59.929Z,16.20
2023-09-08T04:01:01.904Z,16.20
2023-09-08T04:02:05.162Z,16.20
2023-09-08T04:03:09.272Z,16.20
2023-09-08T04:04:12.289Z,16.20
2023-09-08T04:05:14.416Z,16.20
2023-09-08T04:06:17.352Z,16.20
2023-09-08T04:07:19.252Z,16.20
2023-09-08T04:08:22.172Z,16.10
2023-09-08T04:09:24.024Z,16.10
2023-09-08T04:10:27.166Z,16.00
2023-09-08T04:11:29.100Z,16.00
2023-09-08T04:12:31.903Z,16.00
2023-09-08T04:13:34.072Z,16.10
2023-09-08T04:14:37.347Z,16.10
2023-09-08T04:15:40.388Z,16.10
2023-09-08T04:16:42.321Z,16.10
2023-09-08T04:17:45.202Z,16.10
2023-09-08T04:18:48.543Z,16.00
2023-09-08T04:19:51.437Z,16.00
2023-09-08T04:20:53.344Z,16.00
2023-09-08T04:21:56.271Z,16.00
2023-09-08T04:22:58.101Z,16.00
2023-09-08T04:24:00.986Z,16.10
2023-09-08T04:25:03.696Z,16.10
2023-09-08T04:26:06.580Z,16.00
2023-09-08T04:27:10.039Z,16.00
2023-09-08T04:28:12.985Z,16.00
2023-09-08T04:29:14.882Z,15.90
2023-09-08T04:30:18.536Z,16.00
2023-09-08T04:31:20.836Z,16.00
2023-09-08T04:32:23.890Z,15.90
2023-09-08T04:33:25.959Z,16.00
2023-09-08T04:34:30.184Z,15.90
2023-09-08T04:35:32.940Z,15.90
2023-09-08T04:36:35.805Z,15.90
2023-09-08T04:37:37.927Z,15.90
2023-09-08T04:38:42.719Z,15.90
2023-09-08T04:39:45.056Z,15.90
2023-09-08T04:40:48.553Z,15.90
2023-09-08T04:41:50.551Z,15.90
2023-09-08T04:42:54.241Z,15.90
2023-09-08T04:43:56.534Z,15.90
2023-09-08T04:44:59.363Z,15.90
2023-09-08T04:46:03.323Z,15.90
2023-09-08T04:47:06.761Z,15.80
2023-09-08T04:48:08.709Z,15.80
2023-09-08T04:49:11.549Z,15.80
2023-09-08T04:50:14.876Z,15.90
2023-09-08T04:51:17.677Z,15.90
2023-09-08T04:52:19.657Z,16.00
2023-09-08T04:53:22.941Z,16.00
2023-09-08T04:54:28.002Z,15.90
2023-09-08T04:55:31.173Z,15.90
2023-09-08T04:56:33.086Z,15.90
2023-09-08T04:57:36.158Z,15.90
2023-09-08T04:58:38.130Z,15.90
2023-09-08T04:59:41.780Z,16.00
2023-09-08T05:00:43.712Z,16.00
2023-09-08T05:01:46.557Z,16.00
2023-09-08T05:02:48.500Z,16.00
2023-09-08T05:03:51.506Z,16.00
2023-09-08T05:04:53.547Z,16.00
2023-09-08T05:05:57.791Z,16.00
2023-09-08T05:06:59.670Z,16.00
2023-09-08T05:08:01.562Z,16.00
2023-09-08T05:09:04.819Z,16.00
2023-09-08T05:10:07.500Z,16.00
2023-09-08T05:11:10.355Z,16.00
2023-09-08T05:12:12.286Z,16.10
2023-09-08T05:13:24.633Z,16.10
2023-09-08T05:14:31.009Z,16.00
2023-09-08T05:15:35.552Z,16.10
2023-09-08T05:16:38.932Z,16.10
2023-09-08T05:17:40.926Z,16.10
2023-09-08T05:18:44.223Z,16.00
2023-09-08T05:19:46.111Z,16.00
2023-09-08T05:20:50.044Z,16.10
2023-09-08T05:21:55.332Z,16.00
2023-09-08T05:22:58.192Z,16.10
2023-09-08T05:24:00.083Z,16.10
2023-09-08T05:25:03.208Z,16.10
2023-09-08T05:26:05.150Z,16.10
2023-09-08T05:27:08.052Z,15.90
2023-09-08T05:28:09.881Z,16.00
2023-09-08T05:29:12.673Z,16.00
2023-09-08T05:30:14.758Z,16.00
2023-09-08T05:31:17.585Z,15.90
2023-09-08T05:32:19.490Z,16.00
2023-09-08T05:33:22.429Z,16.00
2023-09-08T05:34:24.506Z,16.00
2023-09-08T05:35:27.425Z,16.00
2023-09-08T05:36:30.805Z,16.00
2023-09-08T05:37:34.999Z,16.00
2023-09-08T05:38:36.949Z,15.90
2023-09-08T05:39:39.958Z,16.00
2023-09-08T05:40:41.926Z,16.10
2023-09-08T05:41:44.814Z,16.10
2023-09-08T05:42:46.661Z,16.10
2023-09-08T05:43:50.010Z,16.10
2023-09-08T05:44:51.986Z,16.20
2023-09-08T05:45:55.040Z,16.20
2023-09-08T05:46:56.971Z,16.10
2023-09-08T05:47:59.993Z,16.10
2023-09-08T05:49:02.046Z,16.10
2023-09-08T05:50:05.194Z,16.10
2023-09-08T05:51:07.698Z,16.10
2023-09-08T05:52:10.665Z,16.10
2023-09-08T05:53:13.988Z,16.20
2023-09-08T05:54:16.823Z,16.20
2023-09-08T05:55:19.077Z,16.20
2023-09-08T05:56:22.326Z,16.10
2023-09-08T05:57:24.282Z,16.10
2023-09-08T05:58:28.384Z,16.20
2023-09-08T05:59:31.363Z,16.20
2023-09-08T06:00:33.250Z,16.20
2023-09-08T06:01:36.184Z,16.30
2023-09-08T06:02:38.129Z,16.30
2023-09-08T06:03:42.052Z,16.30
2023-09-08T06:04:44.274Z,16.30
2023-09-08T06:05:47.204Z,16.40
2023-09-08T06:06:49.104Z,16.40
2023-09-08T06:08:05.916Z,16.40
2023-09-08T06:09:13.132Z,16.50
2023-09-08T06:10:16.054Z,16.50
2023-09-08T06:11:17.950Z,16.50
2023-09-08T06:12:20.776Z,16.50
2023-09-08T06:13:22.622Z,16.50
2023-09-08T06:14:25.516Z,16.50
2023-09-08T06:15:27.445Z,16.50
2023-09-08T06:16:30.333Z,16.50
2023-09-08T06:17:32.266Z,16.50
2023-09-08T06:18:40.949Z,16.60
2023-09-08T06:19:42.947Z,16.60
2023-09-08T06:20:49.326Z,16.60
2023-09-08T06:21:51.270Z,16.70
2023-09-08T06:22:54.119Z,16.70
2023-09-08T06:23:56.118Z,16.70
2023-09-08T06:25:00.301Z,16.60
2023-09-08T06:26:02.357Z,16.70
2023-09-08T06:27:05.673Z,16.80
2023-09-08T06:28:07.602Z,16.80
2023-09-08T06:29:10.479Z,16.80
2023-09-08T06:30:14.592Z,16.80
2023-09-08T06:31:17.510Z,16.80
2023-09-08T06:32:19.409Z,16.80
2023-09-08T06:33:23.417Z,16.90
2023-09-08T06:34:25.636Z,16.90
2023-09-08T06:35:28.776Z,16.90
2023-09-08T06:36:30.693Z,16.90
2023-09-08T06:37:37.352Z,16.90
2023-09-08T06:38:39.208Z,17.00
2023-09-08T06:39:42.085Z,17.00
2023-09-08T06:40:45.291Z,17.00
2023-09-08T06:41:48.177Z,17.00
2023-09-08T06:42:50.114Z,17.00
2023-09-08T06:43:52.973Z,17.10
2023-09-08T06:44:54.808Z,17.10
2023-09-08T06:45:56.736Z,17.10
2023-09-08T06:46:59.594Z,17.10
2023-09-08T06:48:01.751Z,17.10
2023-09-08T06:49:05.426Z,17.10
2023-09-08T06:50:08.085Z,17.20
2023-09-08T06:51:10.035Z,17.20
2023-09-08T06:52:12.864Z,17.20
2023-09-08T06:53:14.804Z,17.20
2023-09-08T06:54:17.632Z,17.20
2023-09-08T06:55:20.610Z,17.20
2023-09-08T06:56:24.079Z,17.20
2023-09-08T06:57:26.953Z,17.20
2023-09-08T06:58:29.077Z,17.30
2023-09-08T06:59:31.928Z,17.30
2023-09-08T07:00:34.275Z,17.30
2023-09-08T07:01:37.524Z,17.30
2023-09-08T07:02:39.635Z,17.30
2023-09-08T07:03:42.737Z,17.30
2023-09-08T07:04:44.976Z,17.30
2023-09-08T07:05:48.029Z,17.30
2023-09-08T07:06:51.121Z,17.40
2023-09-08T07:07:54.132Z,17.30
2023-09-08T07:08:55.996Z,17.40
2023-09-08T07:09:58.868Z,17.40
2023-09-08T07:11:00.816Z,17.40
2023-09-08T07:12:05.761Z,17.40
2023-09-08T07:13:07.722Z,17.40
2023-09-08T07:14:10.565Z,17.40
2023-09-08T07:15:12.498Z,17.40
2023-09-08T07:16:15.410Z,17.40
2023-09-08T07:17:17.457Z,17.40
2023-09-08T07:18:20.903Z,17.50
2023-09-08T07:19:23.064Z,17.50
2023-09-08T07:20:26.029Z,17.50
2023-09-08T07:21:28.051Z,18.90
2023-09-08T07:22:29.903Z,17.50
2023-09-08T07:23:32.961Z,17.50
2023-09-08T07:24:34.871Z,17.60
2023-09-08T07:25:37.720Z,17.60
2023-09-08T07:26:39.584Z,17.60
2023-09-08T07:27:43.845Z,17.50
2023-09-08T07:28:45.748Z,17.60
2023-09-08T07:29:50.695Z,17.60
2023-09-08T07:30:52.673Z,17.60
2023-09-08T07:31:55.593Z,17.60
2023-09-08T07:32:59.033Z,17.60
2023-09-08T07:34:02.021Z,17.60
2023-09-08T07:35:04.529Z,17.60
2023-09-08T07:36:06.793Z,17.70
2023-09-08T07:37:09.776Z,17.70
2023-09-08T07:38:11.625Z,17.70
2023-09-08T07:39:14.473Z,17.70
2023-09-08T07:40:16.436Z,17.70
2023-09-08T07:41:19.269Z,17.70
2023-09-08T07:42:21.189Z,17.70
2023-09-08T07:43:25.565Z,17.70
2023-09-08T07:44:27.619Z,17.70
2023-09-08T07:45:30.665Z,17.70
2023-09-08T07:46:32.628Z,17.80
2023-09-08T07:47:35.534Z,17.80
2023-09-08T07:48:37.718Z,17.80
2023-09-08T07:49:40.887Z,17.80
2023-09-08T07:50:43.154Z,17.90
2023-09-08T07:51:46.006Z,17.90
2023-09-08T07:52:48.014Z,17.90
2023-09-08T07:53:51.111Z,17.90
2023-09-08T07:54:53.010Z,17.90
2023-09-08T07:55:55.996Z,17.80
2023-09-08T07:56:57.927Z,17.90
2023-09-08T07:58:00.795Z,17.90
2023-09-08T07:59:04.082Z,17.90
2023-09-08T08:00:07.485Z,17.90
2023-09-08T08:01:10.413Z,18.00
2023-09-08T08:02:12.410Z,18.00
2023-09-08T08:03:15.382Z,18.00
2023-09-08T08:04:17.683Z,18.00
2023-09-08T08:05:20.622Z,18.00
2023-09-08T08:06:22.591Z,18.00
2023-09-08T08:07:25.456Z,18.00
2023-09-08T08:08:27.458Z,18.00
2023-09-08T08:09:30.391Z,18.00
2023-09-08T08:10:33.315Z,18.00
2023-09-08T08:11:36.311Z,18.00
2023-09-08T08:12:38.685Z,18.10
2023-09-08T08:13:41.735Z,18.30
2023-09-08T08:14:44.975Z,18.40
2023-09-08T08:15:48.378Z,18.40
2023-09-08T08:16:50.440Z,18.40
2023-09-08T08:17:53.408Z,18.30
2023-09-08T08:18:55.402Z,18.30
2023-09-08T08:19:59.466Z,18.30
2023-09-08T08:21:01.493Z,18.30
2023-09-08T08:22:04.631Z,18.30
2023-09-08T08:23:07.441Z,18.30
2023-09-08T08:24:11.421Z,18.30
2023-09-08T08:25:13.731Z,18.30
2023-09-08T08:26:17.206Z,18.30
2023-09-08T08:27:19.175Z,18.30
2023-09-08T08:28:21.152Z,18.30
2023-09-08T08:29:23.996Z,18.40
2023-09-08T08:30:27.456Z,18.30
2023-09-08T08:31:30.286Z,18.30
2023-09-08T08:32:32.158Z,18.40
2023-09-08T08:33:35.313Z,18.40
2023-09-08T08:34:37.203Z,18.40
2023-09-08T08:35:40.029Z,18.40
2023-09-08T08:36:41.924Z,18.40
2023-09-08T08:37:44.841Z,18.40
2023-09-08T08:38:47.671Z,18.40
2023-09-08T08:39:50.514Z,18.40
2023-09-08T08:40:52.587Z,18.40
2023-09-08T08:41:55.471Z,18.50
2023-09-08T08:43:02.255Z,18.50
2023-09-08T08:44:06.550Z,18.50
2023-09-08T08:45:10.138Z,18.50
2023-09-08T08:46:14.915Z,18.50
2023-09-08T08:47:18.944Z,18.50
2023-09-08T08:48:22.746Z,18.50
2023-09-08T08:49:25.894Z,18.50
2023-09-08T08:50:28.258Z,18.50
2023-09-08T08:51:32.909Z,18.50
2023-09-08T08:52:35.014Z,18.50
2023-09-08T08:53:39.847Z,18.60
2023-09-08T08:54:43.533Z,18.60
2023-09-08T08:55:48.137Z,18.60
2023-09-08T08:56:50.393Z,18.70
2023-09-08T08:57:53.730Z,18.60
2023-09-08T08:58:57.597Z,18.60
2023-09-08T09:00:02.119Z,18.60
2023-09-08T09:01:05.578Z,18.60
2023-09-08T09:02:11.234Z,18.60
2023-09-08T09:03:15.973Z,18.60
2023-09-08T09:04:20.052Z,18.70
2023-09-08T09:05:22.637Z,18.70
2023-09-08T09:06:25.548Z,18.70
2023-09-08T09:07:31.654Z,18.70
2023-09-08T09:08:35.751Z,18.70
2023-09-08T09:09:38.002Z,18.70
2023-09-08T09:10:40.962Z,18.70
2023-09-08T09:11:43.020Z,18.70
2023-09-08T09:12:46.089Z,18.80
2023-09-08T09:13:48.081Z,18.80
2023-09-08T09:14:55.838Z,18.80
2023-09-08T09:16:00.446Z,18.80
2023-09-08T09:17:05.772Z,18.70
2023-09-08T09:18:09.371Z,18.80
2023-09-08T09:19:21.368Z,18.80
2023-09-08T09:20:24.319Z,18.80
2023-09-08T09:21:42.953Z,18.80
2023-09-08T09:22:45.176Z,18.80
2023-09-08T09:23:48.066Z,18.80
2023-09-08T09:24:50.091Z,18.80
2023-09-08T09:25:53.086Z,18.80
2023-09-08T09:26:55.189Z,18.90
2023-09-08T09:27:59.860Z,18.90
2023-09-08T09:29:01.769Z,18.90
2023-09-08T09:30:05.559Z,18.90
2023-09-08T09:31:07.429Z,18.90
2023-09-08T09:32:10.317Z,18.90
2023-09-08T09:33:16.265Z,18.90
2023-09-08T09:34:19.210Z,18.90
2023-09-08T09:35:21.107Z,18.90
2023-09-08T09:36:24.124Z,19.00
2023-09-08T09:37:26.117Z,19.00
2023-09-08T09:38:29.754Z,19.00
2023-09-08T09:39:31.789Z,19.00
2023-09-08T09:40:33.895Z,19.00
2023-09-08T09:41:36.744Z,19.00
2023-09-08T09:42:39.801Z,19.00
2023-09-08T09:43:42.750Z,19.00
2023-09-08T09:44:44.961Z,19.10
2023-09-08T09:45:47.952Z,19.10
2023-09-08T09:46:52.562Z,19.10
2023-09-08T09:47:54.489Z,19.10
2023-09-08T09:48:58.748Z,19.20
2023-09-08T09:50:01.392Z,19.20
2023-09-08T09:51:19.553Z,19.50
2023-09-08T09:52:23.960Z,20.00
2023-09-08T09:53:26.874Z,20.40
2023-09-08T09:54:30.398Z,20.70
2023-09-08T09:55:33.694Z,21.00
2023-09-08T09:56:37.804Z,21.00
2023-09-08T09:57:41.325Z,21.30
2023-09-08T09:58:44.383Z,21.70
2023-09-08T09:59:49.336Z,22.20
2023-09-08T10:00:52.375Z,22.60
2023-09-08T10:01:55.990Z,23.00
2023-09-08T10:02:58.165Z,23.10
2023-09-08T10:04:01.890Z,23.00
2023-09-08T10:05:13.890Z,23.10
2023-09-08T10:06:17.144Z,23.20
2023-09-08T10:07:20.625Z,23.30
2023-09-08T10:08:23.522Z,23.80
2023-09-08T10:09:26.519Z,24.20
2023-09-08T10:10:31.557Z,24.50
2023-09-08T10:11:45.533Z,24.70
2023-09-08T10:12:52.784Z,24.70
2023-09-08T10:14:00.497Z,24.20
2023-09-08T10:15:04.035Z,23.40
2023-09-08T10:16:09.916Z,22.60
2023-09-08T10:17:16.153Z,22.00
2023-09-08T10:18:22.508Z,21.50
2023-09-08T10:19:26.505Z,21.10
2023-09-08T10:20:32.154Z,20.80
2023-09-08T10:21:37.209Z,20.60
2023-09-08T10:22:43.830Z,20.40
2023-09-08T10:23:55.244Z,20.30
2023-09-08T10:25:06.400Z,20.20
2023-09-08T10:26:11.998Z,20.20
2023-09-08T10:27:15.447Z,20.10
2023-09-08T10:28:18.295Z,20.00
2023-09-08T10:29:21.801Z,20.00
2023-09-08T10:30:24.420Z,20.10
2023-09-08T10:31:29.498Z,20.00
2023-09-08T10:32:33.868Z,20.00
2023-09-08T10:33:37.836Z,20.00
2023-09-08T10:34:42.329Z,19.90
2023-09-08T10:35:45.693Z,20.00
2023-09-08T10:36:47.665Z,19.90
2023-09-08T10:37:50.542Z,19.90
2023-09-08T10:38:52.998Z,20.30
2023-09-08T10:39:55.975Z,20.80
2023-09-08T10:41:29.528Z,21.00
2023-09-08T10:42:32.439Z,20.70
2023-09-08T10:43:35.617Z,20.40
2023-09-08T10:44:40.411Z,20.30
2023-09-08T10:45:42.542Z,20.20
2023-09-08T10:46:45.826Z,20.10
2023-09-08T10:47:58.797Z,20.20
2023-09-08T10:49:08.024Z,20.40
2023-09-08T10:50:18.915Z,20.50
2023-09-08T10:51:24.146Z,20.40
2023-09-08T10:52:26.650Z,20.70
2023-09-08T10:53:29.547Z,20.70
2023-09-08T10:54:44.696Z,20.70
2023-09-08T10:56:58.917Z,21.10
2023-09-08T10:58:00.830Z,21.20
2023-09-08T10:59:04.058Z,21.20
2023-09-08T11:00:12.836Z,21.00
2023-09-08T11:01:19.196Z,20.90
2023-09-08T11:02:34.708Z,20.90
2023-09-08T11:03:51.457Z,20.70
2023-09-08T11:04:55.370Z,20.60
2023-09-08T11:05:59.870Z,20.40
2023-09-08T11:07:02.203Z,20.30
2023-09-08T11:08:05.847Z,20.30
2023-09-08T11:09:08.486Z,20.20
2023-09-08T11:10:12.709Z,20.20
2023-09-08T11:11:16.219Z,20.20
2023-09-08T11:12:19.157Z,20.20
2023-09-08T11:13:21.733Z,20.20
2023-09-08T11:14:24.628Z,20.20
2023-09-08T11:15:26.546Z,20.10
2023-09-08T11:16:32.735Z,20.10
2023-09-08T11:17:35.627Z,20.10
2023-09-08T11:18:38.933Z,20.00
2023-09-08T11:19:46.212Z,20.00
2023-09-08T11:20:54.079Z,20.00
2023-09-08T11:21:57.846Z,20.00
2023-09-08T11:23:01.720Z,20.00
2023-09-08T11:24:05.375Z,19.90
2023-09-08T11:25:11.929Z,19.90
2023-09-08T11:26:14.489Z,19.90
2023-09-08T11:27:17.619Z,19.90
2023-09-08T11:28:20.291Z,19.90
2023-09-08T11:29:23.193Z,19.90
2023-09-08T11:30:26.218Z,19.90
2023-09-08T11:31:29.227Z,19.90
2023-09-08T11:32:33.776Z,19.90
2023-09-08T11:33:40.459Z,19.90
2023-09-08T11:34:42.947Z,19.90
2023-09-08T11:35:47.975Z,19.90
2023-09-08T11:36:49.982Z,19.90
2023-09-08T11:37:56.296Z,20.00
2023-09-08T11:38:58.196Z,19.90
2023-09-08T11:40:01.060Z,20.00
2023-09-08T11:41:04.324Z,19.90
2023-09-08T11:42:07.915Z,19.90
2023-09-08T11:43:09.856Z,19.90
2023-09-08T11:44:18.181Z,19.90
2023-09-08T11:45:22.492Z,19.90
2023-09-08T11:46:27.222Z,19.80
2023-09-08T11:47:29.312Z,19.90
2023-09-08T11:48:33.394Z,19.80
2023-09-08T11:49:36.160Z,19.80
2023-09-08T11:50:39.057Z,19.80
2023-09-08T11:51:40.972Z,19.90
2023-09-08T11:52:45.873Z,19.80
2023-09-08T11:53:49.384Z,19.80
2023-09-08T11:55:06.622Z,19.80
2023-09-08T11:56:09.748Z,19.80
2023-09-08T11:57:13.420Z,19.80
2023-09-08T11:58:15.752Z,19.70
2023-09-08T11:59:18.916Z,19.80
2023-09-08T12:00:24.039Z,19.80
2023-09-08T12:01:27.294Z,19.80
2023-09-08T12:02:29.363Z,19.80
2023-09-08T12:03:32.230Z,19.80
2023-09-08T12:04:36.828Z,19.80
2023-09-08T12:05:40.388Z,19.80
2023-09-08T12:06:42.354Z,19.80
2023-09-08T12:07:46.174Z,19.70
2023-09-08T12:08:49.463Z,19.80
2023-09-08T12:09:52.435Z,19.80
2023-09-08T12:10:55.264Z,19.80
2023-09-08T12:11:58.674Z,19.80
2023-09-08T12:13:01.489Z,19.70
2023-09-08T12:14:08.528Z,19.80
2023-09-08T12:15:11.111Z,19.70
2023-09-08T12:16:20.664Z,19.70
2023-09-08T12:17:25.814Z,19.70
2023-09-08T12:18:41.910Z,19.70
2023-09-08T12:19:44.094Z,19.80
2023-09-08T12:20:47.055Z,19.80
2023-09-08T12:21:56.621Z,19.70
2023-09-08T12:23:00.854Z,19.70
2023-09-08T12:24:05.525Z,19.70
2023-09-08T12:25:09.653Z,19.70
2023-09-08T12:26:12.736Z,19.80
2023-09-08T12:27:15.628Z,19.80
2023-09-08T12:28:20.160Z,19.80
2023-09-08T12:29:22.154Z,19.80
2023-09-08T12:30:30.621Z,19.80
2023-09-08T12:31:33.835Z,19.80
2023-09-08T12:32:36.033Z,19.80
2023-09-08T12:33:39.049Z,19.80
2023-09-08T12:34:41.062Z,19.80
2023-09-08T12:35:45.506Z,19.80
2023-09-08T12:36:47.557Z,19.80
2023-09-08T12:37:53.042Z,19.70
2023-09-08T12:38:55.928Z,19.70
2023-09-08T12:39:59.180Z,19.80
2023-09-08T12:41:02.069Z,19.70
2023-09-08T12:42:04.245Z,19.80
2023-09-08T12:43:12.450Z,19.80
2023-09-08T12:44:29.090Z,19.70
2023-09-08T12:45:33.017Z,19.80
2023-09-08T12:46:36.509Z,19.70
2023-09-08T12:47:39.499Z,19.70
2023-09-08T12:48:41.364Z,19.80
2023-09-08T12:49:44.869Z,19.80
2023-09-08T12:50:49.046Z,19.80
2023-09-08T12:51:51.885Z,19.80
2023-09-08T12:52:54.471Z,19.80
2023-09-08T12:53:57.384Z,19.80
2023-09-08T12:55:00.713Z,19.80
2023-09-08T12:56:03.623Z,19.80
2023-09-08T12:57:07.146Z,19.70
2023-09-08T12:58:10.159Z,19.80
2023-09-08T12:59:11.983Z,19.70
2023-09-08T13:00:15.960Z,19.80
2023-09-08T13:01:17.937Z,19.80
2023-09-08T13:02:22.125Z,19.80
2023-09-08T13:03:24.086Z,19.80
2023-09-08T13:04:27.123Z,19.80
2023-09-08T13:05:29.131Z,19.80
2023-09-08T13:06:33.867Z,19.80
2023-09-08T13:07:35.758Z,19.80
2023-09-08T13:08:38.765Z,19.80
2023-09-08T13:09:41.774Z,19.70
2023-09-08T13:10:46.054Z,19.80
2023-09-08T13:11:47.959Z,19.80
2023-09-08T13:12:50.831Z,19.80
2023-09-08T13:13:52.747Z,19.80
2023-09-08T13:14:55.725Z,19.80
2023-09-08T13:15:57.807Z,19.80
2023-09-08T13:17:00.735Z,19.80
2023-09-08T13:18:02.637Z,19.80
2023-09-08T13:19:06.549Z,19.80
2023-09-08T13:20:09.780Z,19.80
2023-09-08T13:21:12.757Z,19.80
2023-09-08T13:22:14.993Z,19.80
2023-09-08T13:23:17.847Z,19.80
2023-09-08T13:24:20.912Z,19.80
2023-09-08T13:25:24.549Z,19.80
2023-09-08T13:26:27.865Z,19.80
2023-09-08T13:27:30.662Z,19.80
2023-09-08T13:28:32.598Z,19.80
2023-09-08T13:29:35.478Z,19.80
2023-09-08T13:30:37.391Z,19.80
2023-09-08T13:31:39.310Z,19.80
2023-09-08T13:32:42.757Z,19.80
2023-09-08T13:33:44.753Z,19.80
2023-09-08T13:34:49.279Z,19.80
2023-09-08T13:35:51.239Z,19.80
2023-09-08T13:36:54.811Z,19.80
2023-09-08T13:37:56.726Z,19.80